OH98 weather

CLOSED Lyttle Airport
New Albany, Ohio, United States

Public forecast

Using degrees Fahrenheit for public forecast. Weather courtesy of forecast.io.

Closest aviation weather report (METAR) to Lyttle Airport

Closest report is John Glenn Columbus International Airport, 5.7 nm (10.5 km) WSW. Retrieved 2019/12/08 09:51 UTC (38 minutes ago):

KCMH 080951Z 13006KT 10SM BKN250 M01/M07 A3021 RMK AO2 SLP238 T10061072

Closest aviation forecast (TAF) to Lyttle Airport

Closest forecast is John Glenn Columbus International Airport, 5.7 nm (10.5 km) WSW. Retrieved 2019/12/08 06:45 UTC (4 hours ago):

TAF KCMH 080541Z 0806/0906 13005KT P6SM BKN250 FM081500 18012KT P6SM BKN050 FM090000 17008KT P6SM VCSH OVC035